createdAt,value
2017-06-01T00:01:46.628Z,51.80
2017-06-01T00:04:14.965Z,51.00
2017-06-01T00:06:43.279Z,51.50
2017-06-01T00:09:11.592Z,51.20
2017-06-01T00:11:39.911Z,51.30
2017-06-01T00:14:08.224Z,51.30
2017-06-01T00:16:36.540Z,50.70
2017-06-01T00:19:04.851Z,51.00
2017-06-01T00:21:33.159Z,50.10
2017-06-01T00:24:01.471Z,49.50
2017-06-01T00:26:29.815Z,49.70
2017-06-01T00:28:58.135Z,49.70
2017-06-01T00:31:26.457Z,49.70
2017-06-01T00:33:54.775Z,48.90
2017-06-01T00:36:23.088Z,48.50
2017-06-01T00:38:51.396Z,48.50
2017-06-01T00:41:19.716Z,48.30
2017-06-01T00:43:48.029Z,48.20
2017-06-01T00:46:16.338Z,47.80
2017-06-01T00:48:44.648Z,48.00
2017-06-01T00:51:12.965Z,48.30
2017-06-01T00:53:41.286Z,49.50
2017-06-01T00:56:09.596Z,49.60
2017-06-01T00:58:37.907Z,49.40
2017-06-01T01:01:06.217Z,50.00
2017-06-01T01:03:34.522Z,50.50
2017-06-01T01:06:02.878Z,49.80
2017-06-01T01:08:31.208Z,50.40
2017-06-01T01:10:59.532Z,50.50
2017-06-01T01:13:27.847Z,51.40
2017-06-01T01:15:56.168Z,51.40
2017-06-01T01:18:24.519Z,51.70
2017-06-01T01:20:52.839Z,51.90
2017-06-01T01:23:21.181Z,51.80
2017-06-01T01:25:49.495Z,51.80
2017-06-01T01:28:17.813Z,51.20
2017-06-01T01:30:46.139Z,51.70
2017-06-01T01:33:14.461Z,51.40
2017-06-01T01:35:42.775Z,51.00
2017-06-01T01:38:11.099Z,50.50
2017-06-01T01:40:39.424Z,50.40
2017-06-01T01:43:07.757Z,49.90
2017-06-01T01:45:36.107Z,50.20
2017-06-01T01:48:04.495Z,50.50
2017-06-01T01:50:32.812Z,50.40
2017-06-01T01:53:01.128Z,49.90
2017-06-01T01:55:29.465Z,50.00
2017-06-01T01:57:57.784Z,50.20
2017-06-01T02:00:26.105Z,49.90
2017-06-01T02:02:54.419Z,49.60
2017-06-01T02:05:22.728Z,49.90
2017-06-01T02:07:51.057Z,49.90
2017-06-01T02:10:19.371Z,50.40
2017-06-01T02:12:47.692Z,50.10
2017-06-01T02:15:16.024Z,49.90
2017-06-01T02:17:44.344Z,50.20
2017-06-01T02:20:12.693Z,50.80
2017-06-01T02:22:41.020Z,51.30
2017-06-01T02:25:09.333Z,52.00
2017-06-01T02:27:37.645Z,51.30
2017-06-01T02:30:05.951Z,50.90
2017-06-01T02:32:34.271Z,51.30
2017-06-01T02:35:02.580Z,50.50
2017-06-01T02:37:30.890Z,50.60
2017-06-01T02:39:59.195Z,50.40
2017-06-01T02:42:27.516Z,50.10
2017-06-01T02:44:55.844Z,50.00
2017-06-01T02:47:24.184Z,49.70
2017-06-01T02:49:52.503Z,49.40
2017-06-01T02:52:20.815Z,49.20
2017-06-01T02:54:49.124Z,48.70
2017-06-01T02:57:17.460Z,48.70
2017-06-01T02:59:45.775Z,48.30
2017-06-01T03:02:14.092Z,48.40
2017-06-01T03:04:42.407Z,48.20
2017-06-01T03:07:10.802Z,48.40
2017-06-01T03:09:39.176Z,49.30
2017-06-01T03:12:07.494Z,49.80
2017-06-01T03:14:35.833Z,50.00
2017-06-01T03:17:04.140Z,49.80
2017-06-01T03:19:32.461Z,49.70
2017-06-01T03:22:00.960Z,50.80
2017-06-01T03:24:29.274Z,50.40
2017-06-01T03:26:57.585Z,50.30
2017-06-01T03:29:25.915Z,51.20
2017-06-01T03:31:54.289Z,52.40
2017-06-01T03:34:22.604Z,53.00
2017-06-01T03:36:50.917Z,53.20
2017-06-01T03:39:19.230Z,52.80
2017-06-01T03:41:47.539Z,51.90
2017-06-01T03:44:15.856Z,51.20
2017-06-01T03:46:44.180Z,51.10
2017-06-01T03:49:12.496Z,51.60
2017-06-01T03:51:40.801Z,51.30
2017-06-01T03:54:09.112Z,51.60
2017-06-01T03:56:37.421Z,51.00
2017-06-01T03:59:05.740Z,50.90
2017-06-01T04:01:34.046Z,50.40
2017-06-01T04:04:02.367Z,51.00
2017-06-01T04:06:30.748Z,50.80
2017-06-01T04:08:59.067Z,51.10
2017-06-01T04:11:27.383Z,50.60
2017-06-01T04:13:55.697Z,50.80
2017-06-01T04:16:24.004Z,50.50
2017-06-01T04:18:52.319Z,51.10
2017-06-01T04:21:20.627Z,50.70
2017-06-01T04:23:48.963Z,49.90
2017-06-01T04:26:17.363Z,50.40
2017-06-01T04:28:45.675Z,49.50
2017-06-01T04:31:13.994Z,50.20
2017-06-01T04:33:42.312Z,50.50
2017-06-01T04:36:10.633Z,50.60
2017-06-01T04:38:38.943Z,50.90
2017-06-01T04:41:07.264Z,51.80
2017-06-01T04:43:35.572Z,51.90
2017-06-01T04:46:03.884Z,51.40
2017-06-01T04:48:32.199Z,51.40
2017-06-01T04:51:00.503Z,51.80
2017-06-01T04:53:28.825Z,51.00
2017-06-01T04:55:57.139Z,50.10
2017-06-01T04:58:25.450Z,50.10
2017-06-01T05:00:53.764Z,50.10
2017-06-01T05:03:22.091Z,50.90
2017-06-01T05:05:50.460Z,51.20
2017-06-01T05:08:18.759Z,50.80
2017-06-01T05:10:47.069Z,50.90
2017-06-01T05:13:15.399Z,51.50
2017-06-01T05:15:43.703Z,51.50
2017-06-01T05:18:18.495Z,51.60
2017-06-01T05:20:46.973Z,51.10
2017-06-01T05:23:15.392Z,51.00
2017-06-01T05:25:43.703Z,51.10
2017-06-01T05:28:12.031Z,50.40
2017-06-01T05:30:40.467Z,50.10
2017-06-01T05:33:08.871Z,49.60
2017-06-01T05:35:37.207Z,49.20
2017-06-01T05:38:05.514Z,49.80
2017-06-01T05:40:34.004Z,49.40
2017-06-01T05:43:02.478Z,49.20
2017-06-01T05:45:30.791Z,48.90
2017-06-01T05:47:59.122Z,47.80
2017-06-01T05:50:27.428Z,48.10
2017-06-01T05:52:55.955Z,47.30
2017-06-01T05:55:24.268Z,47.90
2017-06-01T05:57:52.571Z,47.20
2017-06-01T06:00:20.887Z,47.40
2017-06-01T06:02:49.199Z,47.30
2017-06-01T06:05:17.515Z,46.80
2017-06-01T06:07:45.832Z,46.10
2017-06-01T06:10:14.148Z,46.60
2017-06-01T06:12:43.937Z,47.10
2017-06-01T06:15:12.517Z,46.20
2017-06-01T06:17:40.847Z,47.10
2017-06-01T06:20:09.379Z,47.30
2017-06-01T06:22:37.691Z,46.80
2017-06-01T06:25:06.019Z,46.80
2017-06-01T06:27:34.339Z,45.60
2017-06-01T06:30:02.791Z,46.90
2017-06-01T06:32:31.474Z,46.40
2017-06-01T06:34:59.783Z,46.10
2017-06-01T06:37:28.329Z,45.40
2017-06-01T06:39:56.709Z,45.10
2017-06-01T06:42:25.348Z,45.30
2017-06-01T06:44:53.872Z,45.10
2017-06-01T06:47:22.179Z,45.20
2017-06-01T06:49:50.497Z,44.40
2017-06-01T06:52:18.841Z,44.70
2017-06-01T06:54:47.168Z,44.70
2017-06-01T06:57:15.476Z,44.70
2017-06-01T06:59:43.789Z,44.30
2017-06-01T07:02:12.095Z,44.60
2017-06-01T07:04:46.841Z,44.40
2017-06-01T07:07:15.828Z,45.00
2017-06-01T07:09:44.620Z,44.20
2017-06-01T07:12:12.935Z,44.10
2017-06-01T07:14:41.251Z,43.60
2017-06-01T07:17:09.568Z,43.20
2017-06-01T07:19:37.883Z,43.30
2017-06-01T07:22:06.197Z,43.00
2017-06-01T07:24:34.499Z,42.90
2017-06-01T07:27:02.808Z,42.30
2017-06-01T07:29:31.124Z,43.50
2017-06-01T07:31:59.451Z,44.00
2017-06-01T07:34:27.814Z,42.50
2017-06-01T07:36:56.124Z,41.50
2017-06-01T07:39:24.434Z,42.00
2017-06-01T07:41:52.743Z,41.30
2017-06-01T07:44:21.063Z,40.60
2017-06-01T07:46:49.384Z,40.30
2017-06-01T07:49:17.708Z,39.60
2017-06-01T07:51:46.054Z,39.30
2017-06-01T07:54:14.381Z,39.10
2017-06-01T07:56:42.698Z,39.30
2017-06-01T07:59:11.013Z,38.30
2017-06-01T08:01:39.324Z,38.10
2017-06-01T08:04:07.632Z,37.40
2017-06-01T08:06:35.936Z,37.10
2017-06-01T08:09:04.255Z,37.80
2017-06-01T08:11:32.559Z,37.50
2017-06-01T08:14:00.867Z,37.40
2017-06-01T08:16:29.353Z,37.20
2017-06-01T08:18:57.663Z,36.70
2017-06-01T08:21:25.986Z,36.50
2017-06-01T08:23:54.292Z,37.20
2017-06-01T08:26:22.615Z,36.50
2017-06-01T08:28:50.919Z,35.70
2017-06-01T08:31:19.228Z,37.20
2017-06-01T08:33:47.543Z,36.30
2017-06-01T08:36:15.848Z,37.20
2017-06-01T08:38:44.164Z,37.10
2017-06-01T08:41:12.485Z,36.80
2017-06-01T08:43:40.796Z,36.70
2017-06-01T08:46:09.111Z,37.80
2017-06-01T08:48:37.424Z,39.30
2017-06-01T08:51:05.732Z,37.00
2017-06-01T08:53:34.043Z,36.80
2017-06-01T08:56:02.355Z,37.50
2017-06-01T08:58:30.685Z,35.10
2017-06-01T09:00:58.988Z,35.50
2017-06-01T09:03:27.296Z,36.90
2017-06-01T09:05:55.607Z,37.30
2017-06-01T09:08:23.922Z,38.20
2017-06-01T09:10:52.240Z,36.50
2017-06-01T09:13:20.576Z,37.30
2017-06-01T09:15:48.889Z,36.50
2017-06-01T09:18:17.197Z,36.50
2017-06-01T09:20:45.499Z,36.60
2017-06-01T09:23:13.818Z,37.10
2017-06-01T09:25:42.144Z,37.50
2017-06-01T09:28:10.476Z,35.90
2017-06-01T09:30:38.788Z,37.40
2017-06-01T09:33:07.104Z,34.50
2017-06-01T09:35:35.426Z,34.00
2017-06-01T09:38:03.738Z,34.60
2017-06-01T09:40:32.049Z,34.30
2017-06-01T09:43:00.355Z,33.80
2017-06-01T09:45:28.687Z,34.90
2017-06-01T09:47:57.039Z,34.40
2017-06-01T09:50:25.357Z,32.90
2017-06-01T09:52:53.675Z,33.00
2017-06-01T09:55:21.977Z,32.40
2017-06-01T09:57:50.287Z,32.70
2017-06-01T10:00:18.603Z,35.00
2017-06-01T10:02:46.913Z,32.80
2017-06-01T10:05:15.223Z,34.10
2017-06-01T10:07:43.535Z,32.00
2017-06-01T10:10:11.847Z,33.60
2017-06-01T10:12:40.171Z,34.00
2017-06-01T10:15:08.479Z,31.10
2017-06-01T10:17:36.796Z,32.30
2017-06-01T10:20:05.108Z,32.20
2017-06-01T10:22:33.416Z,34.10
2017-06-01T10:25:01.735Z,29.50
2017-06-01T10:27:30.044Z,29.30
2017-06-01T10:29:58.355Z,30.50
2017-06-01T10:32:26.668Z,30.80
2017-06-01T10:34:54.979Z,31.80
2017-06-01T10:37:23.300Z,31.60
2017-06-01T10:39:51.613Z,31.00
2017-06-01T10:42:19.919Z,29.20
2017-06-01T10:44:48.225Z,29.00
2017-06-01T10:47:16.544Z,28.60
2017-06-01T10:49:44.859Z,29.10
2017-06-01T10:52:13.177Z,28.00
2017-06-01T10:54:41.488Z,29.10
2017-06-01T10:57:09.801Z,29.60
2017-06-01T10:59:38.112Z,29.80
2017-06-01T11:02:06.431Z,27.70
2017-06-01T11:04:34.741Z,27.60
2017-06-01T11:07:03.051Z,28.30
2017-06-01T11:09:31.368Z,29.50
2017-06-01T11:11:59.684Z,28.50
2017-06-01T11:14:27.999Z,25.00
2017-06-01T11:16:56.304Z,25.60
2017-06-01T11:19:24.622Z,26.40
2017-06-01T11:21:52.938Z,27.10
2017-06-01T11:24:21.247Z,27.10
2017-06-01T11:26:49.567Z,26.10
2017-06-01T11:29:17.887Z,24.70
2017-06-01T11:31:46.201Z,26.00
2017-06-01T11:34:14.512Z,26.20
2017-06-01T11:36:42.819Z,27.00
2017-06-01T11:39:11.135Z,25.20
2017-06-01T11:41:39.443Z,24.20
2017-06-01T11:44:07.751Z,25.60
2017-06-01T11:46:36.055Z,24.20
2017-06-01T11:49:04.368Z,25.80
2017-06-01T11:51:32.679Z,24.50
2017-06-01T11:54:00.991Z,23.40
2017-06-01T11:56:29.304Z,24.80
2017-06-01T11:58:57.612Z,23.20
2017-06-01T12:01:25.923Z,24.20
2017-06-01T12:03:54.248Z,23.60
2017-06-01T12:06:22.564Z,23.50
2017-06-01T12:08:50.880Z,23.30
2017-06-01T12:11:19.187Z,23.20
2017-06-01T12:13:47.507Z,22.00
2017-06-01T12:16:15.827Z,21.80
2017-06-01T12:18:44.143Z,21.90
2017-06-01T12:21:12.462Z,22.80
2017-06-01T12:23:40.769Z,21.90
2017-06-01T12:26:09.107Z,21.10
2017-06-01T12:28:37.431Z,21.40
2017-06-01T12:31:05.752Z,21.80
2017-06-01T12:33:34.060Z,22.00
2017-06-01T12:36:02.380Z,21.50
2017-06-01T12:38:30.691Z,20.30
2017-06-01T12:40:59.023Z,20.30
2017-06-01T12:43:27.338Z,17.50
2017-06-01T12:45:55.644Z,18.80
2017-06-01T12:48:24.040Z,21.60
2017-06-01T12:50:52.344Z,19.40
2017-06-01T12:53:20.661Z,19.70
2017-06-01T12:55:49.028Z,20.50
2017-06-01T12:58:17.320Z,19.70
2017-06-01T13:00:45.621Z,20.60
2017-06-01T13:03:13.928Z,19.20
2017-06-01T13:05:42.237Z,20.10
2017-06-01T13:08:10.544Z,17.40
2017-06-01T13:10:38.857Z,17.60
2017-06-01T13:13:07.169Z,20.50
2017-06-01T13:15:35.492Z,19.20
2017-06-01T13:18:03.799Z,18.90
2017-06-01T13:20:32.111Z,19.90
2017-06-01T13:23:00.790Z,19.00
2017-06-01T13:25:29.097Z,18.60
2017-06-01T13:27:57.411Z,18.80
2017-06-01T13:30:25.723Z,19.50
2017-06-01T13:32:54.034Z,19.40
2017-06-01T13:35:22.344Z,18.80
2017-06-01T13:37:50.651Z,18.90
2017-06-01T13:40:18.960Z,18.40
2017-06-01T13:42:47.271Z,18.50
2017-06-01T13:45:15.577Z,20.70
2017-06-01T13:47:43.892Z,19.90
2017-06-01T13:50:12.201Z,19.30
2017-06-01T13:52:40.520Z,19.80
2017-06-01T13:55:08.851Z,18.80
2017-06-01T13:57:37.169Z,20.80
2017-06-01T14:00:05.479Z,20.90
2017-06-01T14:02:33.796Z,19.60
2017-06-01T14:05:02.104Z,18.30
2017-06-01T14:07:30.415Z,19.90
2017-06-01T14:09:58.736Z,20.40
2017-06-01T14:12:27.044Z,19.70
2017-06-01T14:14:55.353Z,19.90
2017-06-01T14:17:23.677Z,19.00
2017-06-01T14:19:51.985Z,18.90
2017-06-01T14:22:20.283Z,19.10
2017-06-01T14:24:48.600Z,19.60
2017-06-01T14:27:16.913Z,19.70
2017-06-01T14:29:45.228Z,18.60
2017-06-01T14:32:13.551Z,21.20
2017-06-01T14:34:41.865Z,21.10
2017-06-01T14:37:10.188Z,21.00
2017-06-01T14:39:38.501Z,20.90
2017-06-01T14:42:06.804Z,19.70
2017-06-01T14:44:35.130Z,18.80
2017-06-01T14:47:03.457Z,20.40
2017-06-01T14:49:31.782Z,18.50
2017-06-01T14:52:00.095Z,19.00
2017-06-01T14:54:28.407Z,18.30
2017-06-01T14:56:56.728Z,19.00
2017-06-01T14:59:25.039Z,18.60
2017-06-01T15:01:53.355Z,19.60
2017-06-01T15:04:21.660Z,19.30
2017-06-01T15:06:49.991Z,20.60
2017-06-01T15:09:18.308Z,19.10
2017-06-01T15:11:46.632Z,18.30
2017-06-01T15:14:14.959Z,18.40
2017-06-01T15:16:43.281Z,19.20
2017-06-01T15:19:11.592Z,19.80
2017-06-01T15:21:39.903Z,19.90
2017-06-01T15:24:08.229Z,19.90
2017-06-01T15:26:36.560Z,19.90
2017-06-01T15:29:04.867Z,19.60
2017-06-01T15:31:33.177Z,19.40
2017-06-01T15:34:01.490Z,20.00
2017-06-01T15:36:29.932Z,19.60
2017-06-01T15:38:58.340Z,19.50
2017-06-01T15:41:26.644Z,19.50
2017-06-01T15:43:54.952Z,19.30
2017-06-01T15:46:23.307Z,19.00
2017-06-01T15:48:51.615Z,19.40
2017-06-01T15:51:19.938Z,20.40
2017-06-01T15:53:48.836Z,19.30
2017-06-01T15:56:17.167Z,18.90
2017-06-01T15:58:45.476Z,18.90
2017-06-01T16:01:13.796Z,19.30
2017-06-01T16:03:42.165Z,19.30
2017-06-01T16:06:10.508Z,19.40
2017-06-01T16:08:38.820Z,20.30
2017-06-01T16:11:07.132Z,19.60
2017-06-01T16:13:35.444Z,19.10
2017-06-01T16:16:03.772Z,19.40
2017-06-01T16:18:32.087Z,19.50
2017-06-01T16:21:00.428Z,19.30
2017-06-01T16:23:28.735Z,20.40
2017-06-01T16:25:57.044Z,21.10
2017-06-01T16:28:25.358Z,19.50
2017-06-01T16:30:54.175Z,20.40
2017-06-01T16:33:22.731Z,20.50
2017-06-01T16:35:51.049Z,20.40
2017-06-01T16:38:19.371Z,20.20
2017-06-01T16:40:47.689Z,20.20
2017-06-01T16:43:16.001Z,20.50
2017-06-01T16:45:44.331Z,20.80
2017-06-01T16:48:12.642Z,20.50
2017-06-01T16:50:41.041Z,20.90
2017-06-01T16:53:09.372Z,20.60
2017-06-01T16:55:37.694Z,21.30
2017-06-01T16:58:06.004Z,20.50
2017-06-01T17:00:34.532Z,20.70
2017-06-01T17:03:02.848Z,20.90
2017-06-01T17:05:31.172Z,22.20
2017-06-01T17:07:59.718Z,21.90
2017-06-01T17:10:28.056Z,22.00
2017-06-01T17:12:56.365Z,21.80
2017-06-01T17:15:24.681Z,22.50
2017-06-01T17:17:53.004Z,22.40
2017-06-01T17:20:21.318Z,23.10
2017-06-01T17:22:49.628Z,22.90
2017-06-01T17:25:17.964Z,23.10
2017-06-01T17:27:46.333Z,23.00
2017-06-01T17:30:14.677Z,23.60
2017-06-01T17:32:42.988Z,23.30
2017-06-01T17:35:11.383Z,23.50
2017-06-01T17:37:39.687Z,24.40
2017-06-01T17:40:08.018Z,23.20
2017-06-01T17:42:36.368Z,23.20
2017-06-01T17:45:04.688Z,23.40
2017-06-01T17:47:33.001Z,23.50
2017-06-01T17:50:01.328Z,23.90
2017-06-01T17:52:29.848Z,23.80
2017-06-01T17:54:58.404Z,24.20
2017-06-01T17:57:26.720Z,23.50
2017-06-01T17:59:55.037Z,24.40
2017-06-01T18:02:23.343Z,23.90
2017-06-01T18:04:51.652Z,24.00
2017-06-01T18:07:20.086Z,24.40
2017-06-01T18:09:48.384Z,23.90
2017-06-01T18:12:16.699Z,24.70
2017-06-01T18:14:45.128Z,24.90
2017-06-01T18:17:13.441Z,25.90
2017-06-01T18:19:41.769Z,25.00
2017-06-01T18:22:10.071Z,25.20
2017-06-01T18:24:38.380Z,25.10
2017-06-01T18:27:06.714Z,25.20
2017-06-01T18:29:36.002Z,25.10
2017-06-01T18:32:04.355Z,25.00
2017-06-01T18:34:32.676Z,25.50
2017-06-01T18:37:00.991Z,25.20
2017-06-01T18:39:29.306Z,24.80
2017-06-01T18:41:57.618Z,24.80
2017-06-01T18:44:26.149Z,26.10
2017-06-01T18:46:55.041Z,26.40
2017-06-01T18:49:23.355Z,25.40
2017-06-01T18:51:51.672Z,25.40
2017-06-01T18:54:19.998Z,25.50
2017-06-01T18:56:48.324Z,25.70
2017-06-01T18:59:16.639Z,25.40
2017-06-01T19:01:44.944Z,25.50
2017-06-01T19:04:13.255Z,26.10
2017-06-01T19:06:41.573Z,25.90
2017-06-01T19:09:09.891Z,26.60
2017-06-01T19:11:38.221Z,26.60
2017-06-01T19:14:06.540Z,27.00
2017-06-01T19:16:34.860Z,27.70
2017-06-01T19:19:03.172Z,27.60
2017-06-01T19:21:31.493Z,28.70
2017-06-01T19:23:59.799Z,27.80
2017-06-01T19:26:28.116Z,28.20
2017-06-01T19:28:56.428Z,28.40
2017-06-01T19:31:24.735Z,29.20
2017-06-01T19:33:53.060Z,29.60
2017-06-01T19:36:21.378Z,28.50
2017-06-01T19:38:49.687Z,28.70
2017-06-01T19:41:17.997Z,29.10
2017-06-01T19:43:46.386Z,29.00
2017-06-01T19:46:14.757Z,28.80
2017-06-01T19:48:43.099Z,29.80
2017-06-01T19:51:11.425Z,29.60
2017-06-01T19:53:39.739Z,29.90
2017-06-01T19:56:08.071Z,29.80
2017-06-01T19:58:36.397Z,29.90
2017-06-01T20:01:04.736Z,29.50
2017-06-01T20:03:33.058Z,29.80
2017-06-01T20:06:01.380Z,30.40
2017-06-01T20:08:30.184Z,31.10
2017-06-01T20:10:58.507Z,30.00
2017-06-01T20:13:26.815Z,30.30
2017-06-01T20:15:55.120Z,29.70
2017-06-01T20:18:23.428Z,29.60
2017-06-01T20:20:51.740Z,29.70
2017-06-01T20:23:20.068Z,30.40
2017-06-01T20:25:48.396Z,30.00
2017-06-01T20:28:16.744Z,29.70
2017-06-01T20:30:45.056Z,29.10
2017-06-01T20:33:13.364Z,29.20
2017-06-01T20:35:41.680Z,29.10
2017-06-01T20:38:09.987Z,29.10
2017-06-01T20:40:38.292Z,29.00
2017-06-01T20:43:06.703Z,29.10
2017-06-01T20:45:35.009Z,29.20
2017-06-01T20:48:03.444Z,29.20
2017-06-01T20:50:31.763Z,29.70
2017-06-01T20:53:00.086Z,30.10
2017-06-01T20:55:28.396Z,31.00
2017-06-01T20:57:56.716Z,30.70
2017-06-01T21:00:25.084Z,30.80
2017-06-01T21:02:53.394Z,30.90
2017-06-01T21:05:21.712Z,31.00
2017-06-01T21:07:50.035Z,31.80
2017-06-01T21:10:18.351Z,31.50
2017-06-01T21:12:46.677Z,30.70
2017-06-01T21:15:15.048Z,30.40
2017-06-01T21:17:43.355Z,31.10
2017-06-01T21:20:11.660Z,32.50
2017-06-01T21:22:40.627Z,32.50
2017-06-01T21:25:08.955Z,33.50
2017-06-01T21:27:37.272Z,34.00
2017-06-01T21:30:05.579Z,34.00
2017-06-01T21:32:33.898Z,34.50
2017-06-01T21:35:02.215Z,34.40
2017-06-01T21:37:30.545Z,34.50
2017-06-01T21:39:58.876Z,35.30
2017-06-01T21:42:27.196Z,35.70
2017-06-01T21:44:55.540Z,35.80
2017-06-01T21:47:23.870Z,35.80
2017-06-01T21:49:52.197Z,36.10
2017-06-01T21:52:20.507Z,35.30
2017-06-01T21:54:48.816Z,36.10
2017-06-01T21:57:17.135Z,36.70
2017-06-01T21:59:45.451Z,37.50
2017-06-01T22:02:13.781Z,37.70
2017-06-01T22:04:42.100Z,38.00
2017-06-01T22:07:10.419Z,38.10
2017-06-01T22:09:38.736Z,38.30
2017-06-01T22:12:07.059Z,38.50
2017-06-01T22:14:35.388Z,38.40
2017-06-01T22:17:03.712Z,39.60
2017-06-01T22:19:32.028Z,39.00
2017-06-01T22:22:00.351Z,39.20
2017-06-01T22:24:28.667Z,38.70
2017-06-01T22:26:56.993Z,38.50
2017-06-01T22:29:25.311Z,39.20
2017-06-01T22:31:53.629Z,39.90
2017-06-01T22:34:21.943Z,39.60
2017-06-01T22:36:50.259Z,39.50
2017-06-01T22:39:18.588Z,38.50
2017-06-01T22:41:46.901Z,39.30
2017-06-01T22:44:15.224Z,37.70
2017-06-01T22:46:43.576Z,37.70
2017-06-01T22:49:11.911Z,37.70
2017-06-01T22:51:40.229Z,39.10
2017-06-01T22:54:08.547Z,39.60
2017-06-01T22:56:36.851Z,39.80
2017-06-01T22:59:05.170Z,39.70
2017-06-01T23:01:33.483Z,40.00
2017-06-01T23:04:01.808Z,39.70
2017-06-01T23:06:30.126Z,39.30
2017-06-01T23:08:58.444Z,40.10
2017-06-01T23:11:26.760Z,40.10
2017-06-01T23:13:55.076Z,39.50
2017-06-01T23:16:23.411Z,39.10
2017-06-01T23:18:51.739Z,38.80
2017-06-01T23:21:20.064Z,38.60
2017-06-01T23:23:48.379Z,38.70
2017-06-01T23:26:16.691Z,39.70
2017-06-01T23:28:45.028Z,39.30
2017-06-01T23:31:13.344Z,39.30
2017-06-01T23:33:41.657Z,38.90
2017-06-01T23:36:09.972Z,39.20
2017-06-01T23:38:38.291Z,40.00
2017-06-01T23:41:06.621Z,39.70
2017-06-01T23:43:34.934Z,40.30
2017-06-01T23:46:03.255Z,40.40
2017-06-01T23:48:31.571Z,40.40
2017-06-01T23:50:59.884Z,41.00
2017-06-01T23:53:28.213Z,40.00
2017-06-01T23:55:56.524Z,40.40
2017-06-01T23:58:24.835Z,40.70
